sensor_id;sensor_type;location;lat;lon;timestamp;P1;durP1;ratioP1;P2;durP2;ratioP2
38901;SDS011;24661;53.566;9.910;2022-11-15T00:00:03;32.80;;;21.00;;
38901;SDS011;24661;53.566;9.910;2022-11-15T00:02:29;36.07;;;23.00;;
38901;SDS011;24661;53.566;9.910;2022-11-15T00:04:55;41.37;;;21.93;;
38901;SDS011;24661;53.566;9.910;2022-11-15T00:07:20;37.57;;;22.57;;
38901;SDS011;24661;53.566;9.910;2022-11-15T00:09:46;33.13;;;21.20;;
38901;SDS011;24661;53.566;9.910;2022-11-15T00:12:11;38.73;;;21.23;;
38901;SDS011;24661;53.566;9.910;2022-11-15T00:14:37;36.33;;;22.07;;
38901;SDS011;24661;53.566;9.910;2022-11-15T00:17:03;39.27;;;24.17;;
38901;SDS011;24661;53.566;9.910;2022-11-15T00:19:28;38.73;;;21.60;;
38901;SDS011;24661;53.566;9.910;2022-11-15T00:21:54;34.10;;;20.80;;
38901;SDS011;24661;53.566;9.910;2022-11-15T00:24:19;39.53;;;22.30;;
38901;SDS011;24661;53.566;9.910;2022-11-15T00:26:45;38.20;;;22.13;;
38901;SDS011;24661;53.566;9.910;2022-11-15T00:29:12;39.07;;;21.47;;
38901;SDS011;24661;53.566;9.910;2022-11-15T00:31:37;35.30;;;21.90;;
38901;SDS011;24661;53.566;9.910;2022-11-15T00:34:03;36.40;;;20.80;;
38901;SDS011;24661;53.566;9.910;2022-11-15T00:36:29;34.23;;;19.97;;
38901;SDS011;24661;53.566;9.910;2022-11-15T00:38:58;35.10;;;20.50;;
38901;SDS011;24661;53.566;9.910;2022-11-15T00:41:24;39.77;;;22.57;;
38901;SDS011;24661;53.566;9.910;2022-11-15T00:43:50;35.50;;;20.17;;
38901;SDS011;24661;53.566;9.910;2022-11-15T00:46:15;35.43;;;22.07;;
38901;SDS011;24661;53.566;9.910;2022-11-15T00:48:41;40.50;;;22.80;;
38901;SDS011;24661;53.566;9.910;2022-11-15T00:51:06;34.53;;;21.63;;
38901;SDS011;24661;53.566;9.910;2022-11-15T00:53:33;36.73;;;22.10;;
38901;SDS011;24661;53.566;9.910;2022-11-15T00:55:59;34.97;;;22.40;;
38901;SDS011;24661;53.566;9.910;2022-11-15T00:58:24;36.87;;;21.67;;
38901;SDS011;24661;53.566;9.910;2022-11-15T01:00:50;35.03;;;21.23;;
38901;SDS011;24661;53.566;9.910;2022-11-15T01:03:16;38.57;;;22.67;;
38901;SDS011;24661;53.566;9.910;2022-11-15T01:05:41;35.20;;;20.63;;
38901;SDS011;24661;53.566;9.910;2022-11-15T01:08:11;34.07;;;21.17;;
38901;SDS011;24661;53.566;9.910;2022-11-15T01:10:38;34.83;;;20.77;;
38901;SDS011;24661;53.566;9.910;2022-11-15T01:13:04;34.50;;;20.83;;
38901;SDS011;24661;53.566;9.910;2022-11-15T01:15:29;35.90;;;21.67;;
38901;SDS011;24661;53.566;9.910;2022-11-15T01:17:55;35.53;;;20.63;;
38901;SDS011;24661;53.566;9.910;2022-11-15T01:20:20;36.00;;;21.77;;
38901;SDS011;24661;53.566;9.910;2022-11-15T01:22:46;37.20;;;21.20;;
38901;SDS011;24661;53.566;9.910;2022-11-15T01:25:11;36.03;;;20.63;;
38901;SDS011;24661;53.566;9.910;2022-11-15T01:27:37;34.50;;;20.37;;
38901;SDS011;24661;53.566;9.910;2022-11-15T01:30:03;37.80;;;21.90;;
38901;SDS011;24661;53.566;9.910;2022-11-15T01:32:29;38.63;;;21.97;;
38901;SDS011;24661;53.566;9.910;2022-11-15T01:34:55;40.27;;;21.70;;
38901;SDS011;24661;53.566;9.910;2022-11-15T01:37:20;38.17;;;21.27;;
38901;SDS011;24661;53.566;9.910;2022-11-15T01:39:46;33.80;;;22.77;;
38901;SDS011;24661;53.566;9.910;2022-11-15T01:42:12;37.33;;;21.53;;
38901;SDS011;24661;53.566;9.910;2022-11-15T01:44:48;35.50;;;21.83;;
38901;SDS011;24661;53.566;9.910;2022-11-15T01:47:27;36.03;;;21.37;;
38901;SDS011;24661;53.566;9.910;2022-11-15T01:50:00;35.37;;;21.50;;
38901;SDS011;24661;53.566;9.910;2022-11-15T01:52:39;38.27;;;22.13;;
38901;SDS011;24661;53.566;9.910;2022-11-15T01:55:14;33.07;;;21.03;;
38901;SDS011;24661;53.566;9.910;2022-11-15T01:57:46;41.00;;;21.70;;
38901;SDS011;24661;53.566;9.910;2022-11-15T02:00:18;36.80;;;21.83;;
38901;SDS011;24661;53.566;9.910;2022-11-15T02:02:44;36.20;;;21.97;;
38901;SDS011;24661;53.566;9.910;2022-11-15T02:05:10;42.07;;;22.17;;
38901;SDS011;24661;53.566;9.910;2022-11-15T02:07:36;31.10;;;19.43;;
38901;SDS011;24661;53.566;9.910;2022-11-15T02:10:07;35.30;;;20.93;;
38901;SDS011;24661;53.566;9.910;2022-11-15T02:12:35;32.87;;;19.17;;
38901;SDS011;24661;53.566;9.910;2022-11-15T02:15:01;36.00;;;21.97;;
38901;SDS011;24661;53.566;9.910;2022-11-15T02:35:02;34.20;;;19.97;;
38901;SDS011;24661;53.566;9.910;2022-11-15T02:37:58;40.33;;;22.77;;
38901;SDS011;24661;53.566;9.910;2022-11-15T02:40:34;36.40;;;20.87;;
38901;SDS011;24661;53.566;9.910;2022-11-15T02:43:11;40.17;;;21.80;;
38901;SDS011;24661;53.566;9.910;2022-11-15T02:46:09;35.13;;;21.93;;
38901;SDS011;24661;53.566;9.910;2022-11-15T02:48:42;38.17;;;21.63;;
38901;SDS011;24661;53.566;9.910;2022-11-15T02:51:09;37.97;;;21.70;;
38901;SDS011;24661;53.566;9.910;2022-11-15T02:53:36;39.33;;;21.73;;
38901;SDS011;24661;53.566;9.910;2022-11-15T02:56:02;35.93;;;21.00;;
38901;SDS011;24661;53.566;9.910;2022-11-15T02:58:35;32.40;;;19.80;;
38901;SDS011;24661;53.566;9.910;2022-11-15T03:06:42;38.30;;;21.40;;
38901;SDS011;24661;53.566;9.910;2022-11-15T03:09:24;37.40;;;22.57;;
38901;SDS011;24661;53.566;9.910;2022-11-15T03:12:24;30.50;;;20.07;;
38901;SDS011;24661;53.566;9.910;2022-11-15T03:15:16;39.57;;;21.63;;
38901;SDS011;24661;53.566;9.910;2022-11-15T03:18:09;33.33;;;19.90;;
38901;SDS011;24661;53.566;9.910;2022-11-15T03:20:46;32.20;;;19.83;;
38901;SDS011;24661;53.566;9.910;2022-11-15T03:23:13;30.43;;;18.97;;
38901;SDS011;24661;53.566;9.910;2022-11-15T03:25:43;34.10;;;18.97;;
38901;SDS011;24661;53.566;9.910;2022-11-15T03:28:16;30.80;;;18.87;;
38901;SDS011;24661;53.566;9.910;2022-11-15T03:30:52;32.97;;;20.27;;
38901;SDS011;24661;53.566;9.910;2022-11-15T03:33:20;31.63;;;18.83;;
38901;SDS011;24661;53.566;9.910;2022-11-15T03:35:47;35.47;;;20.37;;
38901;SDS011;24661;53.566;9.910;2022-11-15T03:40:58;40.17;;;24.03;;
38901;SDS011;24661;53.566;9.910;2022-11-15T03:46:05;34.03;;;19.20;;
38901;SDS011;24661;53.566;9.910;2022-11-15T03:48:49;33.47;;;20.30;;
38901;SDS011;24661;53.566;9.910;2022-11-15T03:51:18;33.23;;;19.03;;
38901;SDS011;24661;53.566;9.910;2022-11-15T03:53:45;33.23;;;18.23;;
38901;SDS011;24661;53.566;9.910;2022-11-15T03:56:11;31.17;;;19.03;;
38901;SDS011;24661;53.566;9.910;2022-11-15T03:58:37;28.87;;;18.80;;
38901;SDS011;24661;53.566;9.910;2022-11-15T04:01:02;35.30;;;18.57;;
38901;SDS011;24661;53.566;9.910;2022-11-15T04:03:28;32.60;;;18.30;;
38901;SDS011;24661;53.566;9.910;2022-11-15T04:05:54;33.63;;;19.77;;
38901;SDS011;24661;53.566;9.910;2022-11-15T04:08:20;29.50;;;18.40;;
38901;SDS011;24661;53.566;9.910;2022-11-15T04:10:48;29.07;;;17.67;;
38901;SDS011;24661;53.566;9.910;2022-11-15T04:13:14;27.60;;;18.10;;
38901;SDS011;24661;53.566;9.910;2022-11-15T04:15:39;30.00;;;16.73;;
38901;SDS011;24661;53.566;9.910;2022-11-15T04:18:05;25.00;;;16.60;;
38901;SDS011;24661;53.566;9.910;2022-11-15T04:20:31;30.07;;;17.23;;
38901;SDS011;24661;53.566;9.910;2022-11-15T04:23:16;29.10;;;19.10;;
38901;SDS011;24661;53.566;9.910;2022-11-15T04:26:04;28.00;;;17.40;;
38901;SDS011;24661;53.566;9.910;2022-11-15T04:28:32;28.50;;;18.27;;
38901;SDS011;24661;53.566;9.910;2022-11-15T04:30:58;27.60;;;16.97;;
38901;SDS011;24661;53.566;9.910;2022-11-15T04:33:24;27.63;;;17.10;;
38901;SDS011;24661;53.566;9.910;2022-11-15T04:35:50;27.77;;;17.80;;
38901;SDS011;24661;53.566;9.910;2022-11-15T04:38:35;28.60;;;17.07;;
38901;SDS011;24661;53.566;9.910;2022-11-15T04:41:01;33.20;;;16.40;;
38901;SDS011;24661;53.566;9.910;2022-11-15T04:43:28;29.50;;;16.73;;
38901;SDS011;24661;53.566;9.910;2022-11-15T04:45:54;28.90;;;17.77;;
38901;SDS011;24661;53.566;9.910;2022-11-15T04:48:19;26.37;;;17.70;;
38901;SDS011;24661;53.566;9.910;2022-11-15T04:50:47;26.77;;;17.33;;
38901;SDS011;24661;53.566;9.910;2022-11-15T04:53:13;30.13;;;17.17;;
38901;SDS011;24661;53.566;9.910;2022-11-15T04:55:38;29.50;;;18.30;;
38901;SDS011;24661;53.566;9.910;2022-11-15T04:58:04;26.60;;;17.00;;
38901;SDS011;24661;53.566;9.910;2022-11-15T05:00:30;25.83;;;16.70;;
38901;SDS011;24661;53.566;9.910;2022-11-15T05:02:56;25.43;;;16.67;;
38901;SDS011;24661;53.566;9.910;2022-11-15T05:05:40;26.87;;;16.43;;
38901;SDS011;24661;53.566;9.910;2022-11-15T05:08:06;32.27;;;17.07;;
38901;SDS011;24661;53.566;9.910;2022-11-15T05:10:32;27.50;;;16.93;;
38901;SDS011;24661;53.566;9.910;2022-11-15T05:12:57;25.97;;;16.47;;
38901;SDS011;24661;53.566;9.910;2022-11-15T05:15:23;24.73;;;16.67;;
38901;SDS011;24661;53.566;9.910;2022-11-15T05:17:49;26.80;;;16.10;;
38901;SDS011;24661;53.566;9.910;2022-11-15T05:20:14;26.77;;;16.77;;
38901;SDS011;24661;53.566;9.910;2022-11-15T05:22:40;24.00;;;15.50;;
38901;SDS011;24661;53.566;9.910;2022-11-15T05:25:06;25.20;;;15.87;;
38901;SDS011;24661;53.566;9.910;2022-11-15T05:27:32;26.87;;;16.43;;
38901;SDS011;24661;53.566;9.910;2022-11-15T05:29:58;24.97;;;15.57;;
38901;SDS011;24661;53.566;9.910;2022-11-15T05:32:24;26.37;;;15.00;;
38901;SDS011;24661;53.566;9.910;2022-11-15T05:34:50;29.30;;;16.70;;
38901;SDS011;24661;53.566;9.910;2022-11-15T05:37:17;28.80;;;16.60;;
38901;SDS011;24661;53.566;9.910;2022-11-15T05:39:43;25.30;;;17.30;;
38901;SDS011;24661;53.566;9.910;2022-11-15T05:42:15;26.73;;;16.00;;
38901;SDS011;24661;53.566;9.910;2022-11-15T05:44:41;27.50;;;15.93;;
38901;SDS011;24661;53.566;9.910;2022-11-15T05:47:13;29.50;;;16.80;;
38901;SDS011;24661;53.566;9.910;2022-11-15T05:49:47;28.60;;;17.93;;
38901;SDS011;24661;53.566;9.910;2022-11-15T05:52:16;27.63;;;16.90;;
38901;SDS011;24661;53.566;9.910;2022-11-15T05:54:44;27.23;;;16.13;;
38901;SDS011;24661;53.566;9.910;2022-11-15T05:57:10;27.90;;;15.80;;
38901;SDS011;24661;53.566;9.910;2022-11-15T05:59:36;23.10;;;14.50;;
38901;SDS011;24661;53.566;9.910;2022-11-15T06:02:02;25.67;;;15.83;;
38901;SDS011;24661;53.566;9.910;2022-11-15T06:04:28;27.00;;;15.37;;
38901;SDS011;24661;53.566;9.910;2022-11-15T06:06:53;21.17;;;13.70;;
38901;SDS011;24661;53.566;9.910;2022-11-15T06:09:19;22.00;;;13.30;;
38901;SDS011;24661;53.566;9.910;2022-11-15T06:11:45;24.67;;;13.23;;
38901;SDS011;24661;53.566;9.910;2022-11-15T06:14:10;19.87;;;13.60;;
38901;SDS011;24661;53.566;9.910;2022-11-15T06:16:36;19.73;;;13.83;;
38901;SDS011;24661;53.566;9.910;2022-11-15T06:19:02;19.57;;;13.07;;
38901;SDS011;24661;53.566;9.910;2022-11-15T06:21:27;21.83;;;14.27;;
38901;SDS011;24661;53.566;9.910;2022-11-15T06:23:54;23.90;;;13.33;;
38901;SDS011;24661;53.566;9.910;2022-11-15T06:26:19;26.27;;;14.97;;
38901;SDS011;24661;53.566;9.910;2022-11-15T06:28:45;24.40;;;13.60;;
38901;SDS011;24661;53.566;9.910;2022-11-15T06:31:11;22.97;;;14.17;;
38901;SDS011;24661;53.566;9.910;2022-11-15T06:33:37;25.40;;;14.03;;
38901;SDS011;24661;53.566;9.910;2022-11-15T06:36:07;19.33;;;13.23;;
38901;SDS011;24661;53.566;9.910;2022-11-15T06:38:35;21.37;;;13.37;;
38901;SDS011;24661;53.566;9.910;2022-11-15T06:41:05;26.40;;;13.97;;
38901;SDS011;24661;53.566;9.910;2022-11-15T06:43:32;23.20;;;13.87;;
38901;SDS011;24661;53.566;9.910;2022-11-15T06:45:59;22.97;;;12.67;;
38901;SDS011;24661;53.566;9.910;2022-11-15T06:48:25;22.30;;;13.67;;
38901;SDS011;24661;53.566;9.910;2022-11-15T06:50:52;20.43;;;13.13;;
38901;SDS011;24661;53.566;9.910;2022-11-15T06:53:18;21.77;;;12.80;;
38901;SDS011;24661;53.566;9.910;2022-11-15T06:55:44;21.67;;;14.13;;
38901;SDS011;24661;53.566;9.910;2022-11-15T06:58:09;23.53;;;14.53;;
38901;SDS011;24661;53.566;9.910;2022-11-15T07:00:35;21.40;;;13.83;;
38901;SDS011;24661;53.566;9.910;2022-11-15T07:03:01;18.80;;;13.50;;
38901;SDS011;24661;53.566;9.910;2022-11-15T07:05:27;25.83;;;15.13;;
38901;SDS011;24661;53.566;9.910;2022-11-15T07:07:54;19.50;;;11.47;;
38901;SDS011;24661;53.566;9.910;2022-11-15T07:10:21;21.77;;;13.07;;
38901;SDS011;24661;53.566;9.910;2022-11-15T07:12:49;24.27;;;13.37;;
38901;SDS011;24661;53.566;9.910;2022-11-15T07:15:16;25.43;;;14.60;;
38901;SDS011;24661;53.566;9.910;2022-11-15T07:17:42;22.40;;;13.47;;
38901;SDS011;24661;53.566;9.910;2022-11-15T07:20:10;24.97;;;13.40;;
38901;SDS011;24661;53.566;9.910;2022-11-15T07:22:37;25.67;;;14.40;;
38901;SDS011;24661;53.566;9.910;2022-11-15T07:25:04;22.87;;;14.17;;
38901;SDS011;24661;53.566;9.910;2022-11-15T07:27:30;24.27;;;14.47;;
38901;SDS011;24661;53.566;9.910;2022-11-15T07:29:55;23.33;;;14.13;;
38901;SDS011;24661;53.566;9.910;2022-11-15T07:32:21;21.57;;;14.40;;
38901;SDS011;24661;53.566;9.910;2022-11-15T07:34:47;23.07;;;13.77;;
38901;SDS011;24661;53.566;9.910;2022-11-15T07:37:13;19.70;;;14.00;;
38901;SDS011;24661;53.566;9.910;2022-11-15T07:39:39;23.90;;;15.10;;
38901;SDS011;24661;53.566;9.910;2022-11-15T07:42:05;21.10;;;14.80;;
38901;SDS011;24661;53.566;9.910;2022-11-15T07:44:49;26.00;;;15.43;;
38901;SDS011;24661;53.566;9.910;2022-11-15T07:47:14;26.80;;;14.80;;
38901;SDS011;24661;53.566;9.910;2022-11-15T07:49:40;19.10;;;13.17;;
38901;SDS011;24661;53.566;9.910;2022-11-15T07:52:05;24.67;;;14.87;;
38901;SDS011;24661;53.566;9.910;2022-11-15T07:54:31;20.57;;;14.17;;
38901;SDS011;24661;53.566;9.910;2022-11-15T07:56:57;24.47;;;14.20;;
38901;SDS011;24661;53.566;9.910;2022-11-15T07:59:22;21.20;;;13.83;;
38901;SDS011;24661;53.566;9.910;2022-11-15T08:01:48;23.33;;;14.70;;
38901;SDS011;24661;53.566;9.910;2022-11-15T08:04:13;21.23;;;13.70;;
38901;SDS011;24661;53.566;9.910;2022-11-15T08:06:39;21.77;;;12.87;;
38901;SDS011;24661;53.566;9.910;2022-11-15T08:09:05;19.63;;;13.10;;
38901;SDS011;24661;53.566;9.910;2022-11-15T08:11:30;19.53;;;13.43;;
38901;SDS011;24661;53.566;9.910;2022-11-15T08:13:56;19.90;;;14.10;;
38901;SDS011;24661;53.566;9.910;2022-11-15T08:16:22;18.27;;;12.70;;
38901;SDS011;24661;53.566;9.910;2022-11-15T08:18:47;22.50;;;14.27;;
38901;SDS011;24661;53.566;9.910;2022-11-15T08:21:14;24.37;;;15.63;;
38901;SDS011;24661;53.566;9.910;2022-11-15T08:23:43;26.93;;;16.63;;
38901;SDS011;24661;53.566;9.910;2022-11-15T08:26:09;21.80;;;13.60;;
38901;SDS011;24661;53.566;9.910;2022-11-15T08:28:35;21.23;;;13.40;;
38901;SDS011;24661;53.566;9.910;2022-11-15T08:31:01;31.10;;;15.27;;
38901;SDS011;24661;53.566;9.910;2022-11-15T08:33:28;24.93;;;15.27;;
38901;SDS011;24661;53.566;9.910;2022-11-15T08:35:57;24.50;;;13.87;;
38901;SDS011;24661;53.566;9.910;2022-11-15T08:38:24;23.13;;;14.43;;
38901;SDS011;24661;53.566;9.910;2022-11-15T08:40:58;22.37;;;14.80;;
38901;SDS011;24661;53.566;9.910;2022-11-15T08:43:27;25.73;;;14.87;;
38901;SDS011;24661;53.566;9.910;2022-11-15T08:45:55;23.03;;;15.80;;
38901;SDS011;24661;53.566;9.910;2022-11-15T08:48:21;25.80;;;16.53;;
38901;SDS011;24661;53.566;9.910;2022-11-15T08:50:47;32.70;;;16.57;;
38901;SDS011;24661;53.566;9.910;2022-11-15T08:53:12;22.77;;;14.47;;
38901;SDS011;24661;53.566;9.910;2022-11-15T08:55:38;21.33;;;14.40;;
38901;SDS011;24661;53.566;9.910;2022-11-15T08:58:05;20.73;;;13.27;;
38901;SDS011;24661;53.566;9.910;2022-11-15T09:00:31;26.30;;;13.70;;
38901;SDS011;24661;53.566;9.910;2022-11-15T09:02:57;25.73;;;14.27;;
38901;SDS011;24661;53.566;9.910;2022-11-15T09:05:22;24.13;;;15.00;;
38901;SDS011;24661;53.566;9.910;2022-11-15T09:07:52;25.40;;;15.30;;
38901;SDS011;24661;53.566;9.910;2022-11-15T09:10:19;32.50;;;14.17;;
38901;SDS011;24661;53.566;9.910;2022-11-15T09:12:45;19.83;;;13.43;;
38901;SDS011;24661;53.566;9.910;2022-11-15T09:15:13;23.53;;;14.13;;
38901;SDS011;24661;53.566;9.910;2022-11-15T09:17:40;21.90;;;12.77;;
38901;SDS011;24661;53.566;9.910;2022-11-15T09:20:06;19.10;;;13.67;;
38901;SDS011;24661;53.566;9.910;2022-11-15T09:22:32;24.60;;;14.33;;
38901;SDS011;24661;53.566;9.910;2022-11-15T09:24:58;26.63;;;13.63;;
38901;SDS011;24661;53.566;9.910;2022-11-15T09:27:29;17.73;;;12.57;;
38901;SDS011;24661;53.566;9.910;2022-11-15T09:29:55;123.87;;;24.07;;
38901;SDS011;24661;53.566;9.910;2022-11-15T09:32:21;28.03;;;13.57;;
38901;SDS011;24661;53.566;9.910;2022-11-15T09:34:48;22.10;;;13.47;;
38901;SDS011;24661;53.566;9.910;2022-11-15T09:37:16;27.77;;;13.13;;
38901;SDS011;24661;53.566;9.910;2022-11-15T09:39:42;28.63;;;13.97;;
38901;SDS011;24661;53.566;9.910;2022-11-15T09:45:09;19.13;;;12.70;;
38901;SDS011;24661;53.566;9.910;2022-11-15T09:53:12;22.37;;;13.17;;
38901;SDS011;24661;53.566;9.910;2022-11-15T09:58:33;22.80;;;12.63;;
38901;SDS011;24661;53.566;9.910;2022-11-15T10:01:41;17.57;;;12.00;;
38901;SDS011;24661;53.566;9.910;2022-11-15T10:04:15;25.33;;;13.90;;
38901;SDS011;24661;53.566;9.910;2022-11-15T10:06:44;27.53;;;13.43;;
38901;SDS011;24661;53.566;9.910;2022-11-15T10:09:19;22.77;;;13.33;;
38901;SDS011;24661;53.566;9.910;2022-11-15T10:11:56;27.17;;;13.83;;
38901;SDS011;24661;53.566;9.910;2022-11-15T10:14:27;23.47;;;14.03;;
38901;SDS011;24661;53.566;9.910;2022-11-15T10:20:05;25.13;;;14.30;;
38901;SDS011;24661;53.566;9.910;2022-11-15T10:22:47;19.73;;;14.17;;
38901;SDS011;24661;53.566;9.910;2022-11-15T10:25:31;20.57;;;13.23;;
38901;SDS011;24661;53.566;9.910;2022-11-15T10:28:43;26.77;;;13.30;;
38901;SDS011;24661;53.566;9.910;2022-11-15T10:30:59;19.63;;;13.50;;
38901;SDS011;24661;53.566;9.910;2022-11-15T10:41:21;18.73;;;13.40;;
38901;SDS011;24661;53.566;9.910;2022-11-15T10:52:21;19.17;;;13.53;;
38901;SDS011;24661;53.566;9.910;2022-11-15T10:54:50;21.93;;;12.87;;
38901;SDS011;24661;53.566;9.910;2022-11-15T10:57:27;19.43;;;12.33;;
38901;SDS011;24661;53.566;9.910;2022-11-15T10:59:59;21.70;;;13.57;;
38901;SDS011;24661;53.566;9.910;2022-11-15T11:02:28;16.23;;;12.10;;
38901;SDS011;24661;53.566;9.910;2022-11-15T11:04:59;22.67;;;12.23;;
38901;SDS011;24661;53.566;9.910;2022-11-15T11:07:31;19.23;;;13.10;;
38901;SDS011;24661;53.566;9.910;2022-11-15T11:10:00;19.20;;;13.00;;
38901;SDS011;24661;53.566;9.910;2022-11-15T11:12:33;26.63;;;12.60;;
38901;SDS011;24661;53.566;9.910;2022-11-15T11:15:10;18.83;;;12.30;;
38901;SDS011;24661;53.566;9.910;2022-11-15T11:20:49;18.83;;;11.20;;
38901;SDS011;24661;53.566;9.910;2022-11-15T11:26:18;19.63;;;11.23;;
38901;SDS011;24661;53.566;9.910;2022-11-15T11:29:17;19.80;;;12.77;;
38901;SDS011;24661;53.566;9.910;2022-11-15T11:42:54;18.80;;;11.73;;
38901;SDS011;24661;53.566;9.910;2022-11-15T11:45:42;19.63;;;11.53;;
38901;SDS011;24661;53.566;9.910;2022-11-15T11:48:32;17.40;;;10.50;;
38901;SDS011;24661;53.566;9.910;2022-11-15T11:51:25;17.67;;;10.77;;
38901;SDS011;24661;53.566;9.910;2022-11-15T11:54:09;20.47;;;11.83;;
38901;SDS011;24661;53.566;9.910;2022-11-15T11:56:39;18.83;;;10.80;;
38901;SDS011;24661;53.566;9.910;2022-11-15T12:01:52;17.97;;;11.77;;
38901;SDS011;24661;53.566;9.910;2022-11-15T12:04:21;16.73;;;10.60;;
38901;SDS011;24661;53.566;9.910;2022-11-15T12:06:55;16.50;;;11.20;;
38901;SDS011;24661;53.566;9.910;2022-11-15T12:09:36;18.57;;;10.57;;
38901;SDS011;24661;53.566;9.910;2022-11-15T12:12:36;19.97;;;12.33;;
38901;SDS011;24661;53.566;9.910;2022-11-15T12:15:14;18.07;;;11.70;;
38901;SDS011;24661;53.566;9.910;2022-11-15T12:17:43;13.90;;;10.27;;
38901;SDS011;24661;53.566;9.910;2022-11-15T12:20:21;22.80;;;11.00;;
38901;SDS011;24661;53.566;9.910;2022-11-15T12:25:56;18.73;;;10.07;;
38901;SDS011;24661;53.566;9.910;2022-11-15T12:31:17;14.63;;;10.00;;
38901;SDS011;24661;53.566;9.910;2022-11-15T12:33:56;16.13;;;10.40;;
38901;SDS011;24661;53.566;9.910;2022-11-15T12:41:25;17.00;;;10.47;;
38901;SDS011;24661;53.566;9.910;2022-11-15T12:43:52;18.63;;;9.50;;
38901;SDS011;24661;53.566;9.910;2022-11-15T12:48:47;16.27;;;9.43;;
38901;SDS011;24661;53.566;9.910;2022-11-15T13:07:56;14.83;;;9.73;;
38901;SDS011;24661;53.566;9.910;2022-11-15T13:15:33;18.43;;;11.33;;
38901;SDS011;24661;53.566;9.910;2022-11-15T13:18:46;17.60;;;10.33;;
38901;SDS011;24661;53.566;9.910;2022-11-15T13:20:52;12.73;;;8.83;;
38901;SDS011;24661;53.566;9.910;2022-11-15T13:23:17;18.37;;;10.40;;
38901;SDS011;24661;53.566;9.910;2022-11-15T13:28:36;20.67;;;11.57;;
38901;SDS011;24661;53.566;9.910;2022-11-15T13:34:48;17.50;;;9.63;;
38901;SDS011;24661;53.566;9.910;2022-11-15T13:36:58;15.70;;;9.30;;
38901;SDS011;24661;53.566;9.910;2022-11-15T13:39:29;12.87;;;8.93;;
38901;SDS011;24661;53.566;9.910;2022-11-15T13:41:59;22.87;;;10.70;;
38901;SDS011;24661;53.566;9.910;2022-11-15T13:44:29;20.07;;;9.43;;
38901;SDS011;24661;53.566;9.910;2022-11-15T13:47:06;18.37;;;9.83;;
38901;SDS011;24661;53.566;9.910;2022-11-15T13:49:39;24.20;;;9.70;;
38901;SDS011;24661;53.566;9.910;2022-11-15T13:52:09;19.87;;;9.60;;
38901;SDS011;24661;53.566;9.910;2022-11-15T13:54:47;12.33;;;8.67;;
38901;SDS011;24661;53.566;9.910;2022-11-15T13:57:20;13.67;;;9.33;;
38901;SDS011;24661;53.566;9.910;2022-11-15T13:59:50;17.87;;;10.33;;
38901;SDS011;24661;53.566;9.910;2022-11-15T14:02:18;14.80;;;9.13;;
38901;SDS011;24661;53.566;9.910;2022-11-15T14:04:46;14.33;;;8.83;;
38901;SDS011;24661;53.566;9.910;2022-11-15T14:07:21;13.83;;;7.90;;
38901;SDS011;24661;53.566;9.910;2022-11-15T14:09:48;12.90;;;8.50;;
38901;SDS011;24661;53.566;9.910;2022-11-15T14:12:22;14.13;;;7.80;;
38901;SDS011;24661;53.566;9.910;2022-11-15T14:17:56;15.00;;;8.63;;
38901;SDS011;24661;53.566;9.910;2022-11-15T14:22:54;15.20;;;9.10;;
38901;SDS011;24661;53.566;9.910;2022-11-15T14:25:34;14.03;;;7.87;;
38901;SDS011;24661;53.566;9.910;2022-11-15T14:28:14;17.47;;;9.17;;
38901;SDS011;24661;53.566;9.910;2022-11-15T14:30:44;17.07;;;8.67;;
38901;SDS011;24661;53.566;9.910;2022-11-15T14:33:34;19.60;;;8.60;;
38901;SDS011;24661;53.566;9.910;2022-11-15T14:38:30;11.27;;;8.57;;
38901;SDS011;24661;53.566;9.910;2022-11-15T14:40:56;12.57;;;9.00;;
38901;SDS011;24661;53.566;9.910;2022-11-15T14:43:22;12.73;;;8.73;;
38901;SDS011;24661;53.566;9.910;2022-11-15T14:45:48;12.33;;;8.90;;
38901;SDS011;24661;53.566;9.910;2022-11-15T14:48:14;17.13;;;9.43;;
38901;SDS011;24661;53.566;9.910;2022-11-15T14:50:39;12.97;;;8.43;;
38901;SDS011;24661;53.566;9.910;2022-11-15T14:53:05;19.07;;;8.67;;
38901;SDS011;24661;53.566;9.910;2022-11-15T14:55:32;14.80;;;9.53;;
38901;SDS011;24661;53.566;9.910;2022-11-15T14:58:01;14.90;;;8.00;;
38901;SDS011;24661;53.566;9.910;2022-11-15T15:00:28;14.07;;;7.83;;
38901;SDS011;24661;53.566;9.910;2022-11-15T15:02:57;15.40;;;8.80;;
38901;SDS011;24661;53.566;9.910;2022-11-15T15:05:29;14.27;;;8.70;;
38901;SDS011;24661;53.566;9.910;2022-11-15T15:08:02;14.07;;;8.90;;
38901;SDS011;24661;53.566;9.910;2022-11-15T15:10:30;21.23;;;10.23;;
38901;SDS011;24661;53.566;9.910;2022-11-15T15:12:58;13.20;;;8.07;;
38901;SDS011;24661;53.566;9.910;2022-11-15T15:15:24;15.70;;;9.97;;
38901;SDS011;24661;53.566;9.910;2022-11-15T15:17:51;15.13;;;9.53;;
38901;SDS011;24661;53.566;9.910;2022-11-15T15:20:17;13.87;;;9.07;;
38901;SDS011;24661;53.566;9.910;2022-11-15T15:22:43;14.40;;;8.63;;
38901;SDS011;24661;53.566;9.910;2022-11-15T15:27:44;15.80;;;8.77;;
38901;SDS011;24661;53.566;9.910;2022-11-15T15:30:10;16.37;;;9.63;;
38901;SDS011;24661;53.566;9.910;2022-11-15T15:32:36;14.20;;;8.37;;
38901;SDS011;24661;53.566;9.910;2022-11-15T15:35:01;14.60;;;8.70;;
38901;SDS011;24661;53.566;9.910;2022-11-15T15:37:27;14.80;;;8.67;;
38901;SDS011;24661;53.566;9.910;2022-11-15T15:39:55;14.40;;;8.60;;
38901;SDS011;24661;53.566;9.910;2022-11-15T15:42:21;14.47;;;8.67;;
38901;SDS011;24661;53.566;9.910;2022-11-15T15:44:48;15.97;;;9.23;;
38901;SDS011;24661;53.566;9.910;2022-11-15T15:47:18;14.93;;;10.03;;
38901;SDS011;24661;53.566;9.910;2022-11-15T15:49:46;15.87;;;8.97;;
38901;SDS011;24661;53.566;9.910;2022-11-15T15:52:12;12.50;;;8.83;;
38901;SDS011;24661;53.566;9.910;2022-11-15T15:54:38;15.43;;;8.97;;
38901;SDS011;24661;53.566;9.910;2022-11-15T15:57:04;13.87;;;10.13;;
38901;SDS011;24661;53.566;9.910;2022-11-15T15:59:31;17.10;;;9.57;;
38901;SDS011;24661;53.566;9.910;2022-11-15T16:01:57;14.43;;;10.20;;
38901;SDS011;24661;53.566;9.910;2022-11-15T16:04:22;14.17;;;9.97;;
38901;SDS011;24661;53.566;9.910;2022-11-15T16:06:49;15.73;;;9.57;;
38901;SDS011;24661;53.566;9.910;2022-11-15T16:09:18;14.80;;;10.27;;
38901;SDS011;24661;53.566;9.910;2022-11-15T16:12:07;12.93;;;9.07;;
38901;SDS011;24661;53.566;9.910;2022-11-15T16:14:33;13.67;;;8.93;;
38901;SDS011;24661;53.566;9.910;2022-11-15T16:16:58;15.20;;;9.50;;
38901;SDS011;24661;53.566;9.910;2022-11-15T16:19:24;12.87;;;9.03;;
38901;SDS011;24661;53.566;9.910;2022-11-15T16:21:49;15.70;;;8.67;;
38901;SDS011;24661;53.566;9.910;2022-11-15T16:24:17;15.67;;;8.40;;
38901;SDS011;24661;53.566;9.910;2022-11-15T16:26:43;14.03;;;9.10;;
38901;SDS011;24661;53.566;9.910;2022-11-15T16:29:11;15.70;;;8.57;;
38901;SDS011;24661;53.566;9.910;2022-11-15T16:31:36;13.07;;;9.20;;
38901;SDS011;24661;53.566;9.910;2022-11-15T16:34:02;19.93;;;8.33;;
38901;SDS011;24661;53.566;9.910;2022-11-15T16:36:30;17.27;;;9.27;;
38901;SDS011;24661;53.566;9.910;2022-11-15T16:38:58;16.93;;;8.77;;
38901;SDS011;24661;53.566;9.910;2022-11-15T16:41:25;10.80;;;8.10;;
38901;SDS011;24661;53.566;9.910;2022-11-15T16:43:51;13.50;;;8.50;;
38901;SDS011;24661;53.566;9.910;2022-11-15T16:46:21;10.80;;;8.30;;